KAOH/AOH METAR and TAF weather

Enter ICAO airport designator
Station Type Date Time Source
KAOH METAR 2018/04/21 10:53 UTC NOAA

KAOH 211053Z AUTO 14007KT 10SM CLR 01/M06 A3044 RMK AO2 SLP315 T00111056


Station Type Date Time Source
KAOH Decoded METAR 2018/04/21 10:53 UTC NOAA

LIMA ALLEN COUNTY AIRPORT, OH, United States (KAOH) 40-42N 84-01W 296M
Apr 21, 2018 - 06:53 AM EDT / 2018.04.21 1053 UTC
Wind: from the SE (140 degrees) at 8 MPH (7 KT):0
Visibility: 10 mile(s):0
Sky conditions: clear
Temperature: 34.0 F (1.1 C)
Windchill: 26 F (-3 C):1
Dew Point: 21.9 F (-5.6 C)
Relative Humidity: 60%
Pressure (altimeter): 30.44 in. Hg (1030 hPa)
ob: KAOH 211053Z AUTO 14007KT 10SM CLR 01/M06 A3044 RMK AO2 SLP315 T00111056
cycle: 11

Station Type Date Time Source
KAOH TAF UTC NOAA

Error!


Example: see airport list